Terminal Aerodrome Forecast
Issued by NWS Blacksburg, VA

Home | Current Version | Previous Version | Text Only | Print | Product List | Glossary On
Versions: 1 2 3 4 5 6 7 8 9 10 11 12 13 14 15 16 17 18 19 20 21 22 23 24
000
FTUS41 KRNK 301137
TAFROA
TAF
KROA 301137Z 3012/3112 00000KT P6SM OVC150
     FM301600 17006KT P6SM OVC070
     FM302000 00000KT P6SM -SHRA OVC060
     FM310400 00000KT P6SM SCT060 OVC100=

USA.gov is the U.S. government's official web portal to all federal, state and local government web resources and services.